Time;durP1;ratioP1;P1;durP2;ratioP2;P2;SDS_P1;SDS_P2;PMS_P1;PMS_P2;Temp;Humidity;BMP_temperature;BMP_pressure;BME280_temperature;BME280_humidity;BME280_pressure;Samples;Min_cycle;Max_cycle;Signal;HPM_P1;HPM_P2
2024/02/24 00:00:06;;;;;;;6.38;4.07;;;;;;;11.81;65.02;99010.50;6256316;28;20049;-75
2024/02/24 00:03:07;;;;;;;8.50;4.40;;;;;;;11.78;65.55;99002.94;6263985;28;20048;-71
2024/02/24 00:06:07;;;;;;;8.25;4.10;;;;;;;11.77;66.55;99003.88;6253047;28;20083;-70
2024/02/24 00:09:10;;;;;;;8.57;4.57;;;;;;;11.70;66.11;99001.78;6266052;28;20135;-70
2024/02/24 00:12:11;;;;;;;7.55;4.20;;;;;;;11.70;66.50;99004.38;6253632;28;20057;-75
2024/02/24 00:15:12;;;;;;;8.27;4.63;;;;;;;11.69;66.87;98997.53;6240539;28;20132;-70
2024/02/24 00:18:13;;;;;;;7.60;4.80;;;;;;;11.61;66.52;98988.63;6254061;28;20084;-70
2024/02/24 00:21:16;;;;;;;6.88;4.32;;;;;;;11.58;66.93;98987.09;6245355;28;20076;-70
2024/02/24 00:24:18;;;;;;;9.48;4.20;;;;;;;11.56;66.34;98985.56;6243588;28;20052;-70
2024/02/24 00:27:18;;;;;;;7.53;4.18;;;;;;;11.60;66.41;98985.19;6244940;28;20041;-70
2024/02/24 00:30:19;;;;;;;7.20;4.05;;;;;;;11.55;66.09;98976.06;6276634;28;20482;-75
2024/02/24 00:33:20;;;;;;;9.48;4.32;;;;;;;11.55;65.93;98969.09;6244687;28;20152;-75
2024/02/24 00:36:21;;;;;;;6.20;3.53;;;;;;;11.51;65.84;98970.28;6245400;28;20120;-75
2024/02/24 00:39:21;;;;;;;5.00;3.30;;;;;;;11.45;65.93;98971.63;6255303;28;20053;-75
2024/02/24 00:42:22;;;;;;;7.38;3.38;;;;;;;11.55;65.89;98974.31;6266477;28;20041;-75
2024/02/24 00:45:23;;;;;;;8.13;3.50;;;;;;;11.44;65.33;98971.72;6242264;28;20080;-70
2024/02/24 00:48:24;;;;;;;14.50;3.88;;;;;;;11.59;65.08;98956.56;6245199;28;20424;-70
2024/02/24 00:51:24;;;;;;;7.63;3.42;;;;;;;11.60;64.99;98956.47;6244722;28;20053;-75
2024/02/24 00:54:27;;;;;;;5.72;3.50;;;;;;;11.66;64.64;98960.34;6243183;28;20045;-75
2024/02/24 00:57:28;;;;;;;8.18;4.00;;;;;;;11.67;64.46;98960.22;6262139;28;20064;-75
2024/02/24 01:00:29;;;;;;;6.55;3.38;;;;;;;11.58;64.33;98954.94;6248311;28;20505;-75
2024/02/24 01:03:30;;;;;;;5.30;3.22;;;;;;;11.54;64.21;98962.19;6255222;28;20095;-75
2024/02/24 01:06:30;;;;;;;5.22;3.00;;;;;;;11.65;64.06;98954.31;6252199;28;20045;-75
2024/02/24 01:09:31;;;;;;;8.93;3.90;;;;;;;11.68;64.05;98951.44;6248445;28;20046;-70
2024/02/24 01:12:32;;;;;;;5.60;3.05;;;;;;;11.71;64.00;98960.78;6249481;28;20054;-70
2024/02/24 01:15:33;;;;;;;5.50;3.03;;;;;;;11.70;63.70;98956.53;6281078;28;20523;-70
2024/02/24 01:18:34;;;;;;;6.40;3.70;;;;;;;11.69;63.42;98954.84;6248613;28;20055;-70
2024/02/24 01:21:42;;;;;;;6.47;3.25;;;;;;;11.70;63.48;98951.31;6248747;28;20056;-70
2024/02/24 01:24:43;;;;;;;6.03;3.58;;;;;;;11.72;63.94;98953.81;6261959;28;20645;-70
2024/02/24 01:27:44;;;;;;;5.20;3.33;;;;;;;11.70;64.05;98941.66;6250871;28;20140;-70
2024/02/24 01:30:45;;;;;;;6.63;3.20;;;;;;;11.60;64.09;98940.78;6248161;28;20841;-71
2024/02/24 01:33:45;;;;;;;6.28;3.60;;;;;;;11.57;63.54;98940.19;6249993;28;20045;-70
2024/02/24 01:36:46;;;;;;;6.40;3.50;;;;;;;11.72;63.94;98938.13;6248307;28;20049;-71
2024/02/24 01:39:47;;;;;;;7.97;3.58;;;;;;;11.69;63.89;98936.56;6255494;28;20144;-70
2024/02/24 01:42:48;;;;;;;5.30;3.00;;;;;;;11.59;64.26;98926.06;6259518;28;20041;-70
2024/02/24 01:45:48;;;;;;;6.72;3.72;;;;;;;11.63;64.03;98921.41;6249742;28;20540;-70
2024/02/24 01:48:49;;;;;;;6.55;3.28;;;;;;;11.65;63.70;98919.50;6249527;28;20056;-70
2024/02/24 01:51:50;;;;;;;3.47;2.33;;;;;;;11.61;63.46;98934.63;6248626;28;20086;-70
2024/02/24 01:54:58;;;;;;;6.82;3.05;;;;;;;11.70;62.44;98926.00;6248889;28;20123;-71
2024/02/24 01:58:02;;;;;;;3.90;2.60;;;;;;;11.77;61.72;98931.53;6247884;28;20516;-70
2024/02/24 02:01:06;;;;;;;3.97;2.40;;;;;;;11.87;61.44;98936.81;6246813;28;20399;-71
2024/02/24 02:04:07;;;;;;;5.65;2.95;;;;;;;11.93;62.14;98936.34;6247042;28;20050;-71
2024/02/24 02:07:08;;;;;;;5.55;2.85;;;;;;;11.97;61.72;98942.97;6248447;28;20045;-70
2024/02/24 02:10:09;;;;;;;7.53;2.60;;;;;;;11.91;62.24;98934.81;6247081;28;20060;-75
2024/02/24 02:13:10;;;;;;;4.35;2.38;;;;;;;11.97;61.56;98931.69;6246992;28;20110;-75
2024/02/24 02:16:11;;;;;;;4.70;2.60;;;;;;;11.95;62.48;98930.97;6245791;28;20497;-75
2024/02/24 02:19:12;;;;;;;5.55;2.83;;;;;;;11.91;62.53;98927.78;6248546;28;20054;-75
2024/02/24 02:22:17;;;;;;;5.97;2.97;;;;;;;11.95;61.25;98929.19;6248387;28;20053;-75
2024/02/24 02:25:18;;;;;;;4.78;2.67;;;;;;;12.03;61.46;98924.16;6252593;28;20075;-71
2024/02/24 02:28:19;;;;;;;3.60;2.33;;;;;;;12.01;61.70;98928.69;6246108;28;20073;-70
2024/02/24 02:31:20;;;;;;;4.65;2.50;;;;;;;12.01;61.86;98936.50;6249154;28;20049;-75
2024/02/24 02:34:21;;;;;;;4.82;2.72;;;;;;;12.00;61.78;98931.41;6258729;28;20128;-75
2024/02/24 02:37:22;;;;;;;8.18;3.13;;;;;;;12.01;61.83;98936.50;6266626;28;20053;-70
2024/02/24 02:40:23;;;;;;;5.72;2.63;;;;;;;12.01;61.90;98927.84;6251157;28;20049;-70
2024/02/24 02:43:24;;;;;;;4.43;2.70;;;;;;;12.02;61.57;98926.88;6245800;28;20099;-70
2024/02/24 02:46:25;;;;;;;3.72;2.50;;;;;;;12.07;61.46;98929.94;6263186;28;20074;-75
2024/02/24 02:49:25;;;;;;;3.63;2.47;;;;;;;11.95;61.16;98937.03;6264476;28;20053;-75
2024/02/24 02:52:29;;;;;;;6.07;3.03;;;;;;;12.02;61.59;98930.31;6248260;28;20094;-75
2024/02/24 02:55:30;;;;;;;5.35;2.80;;;;;;;12.02;62.35;98939.94;6246779;28;20485;-75
2024/02/24 02:58:30;;;;;;;4.90;2.67;;;;;;;11.85;62.51;98930.88;6272319;28;20091;-71
2024/02/24 03:01:31;;;;;;;3.92;2.65;;;;;;;11.86;61.98;98932.53;6272694;28;20512;-72
2024/02/24 03:04:34;;;;;;;4.32;2.33;;;;;;;11.79;61.40;98944.47;6271341;28;20407;-71
2024/02/24 03:07:35;;;;;;;4.30;2.70;;;;;;;11.85;62.43;98946.56;6262887;28;20053;-71
2024/02/24 03:10:36;;;;;;;5.22;2.72;;;;;;;11.80;62.59;98938.31;6246660;28;20054;-70
2024/02/24 03:13:37;;;;;;;11.05;2.53;;;;;;;11.79;62.29;98937.44;6247522;28;20108;-71
2024/02/24 03:16:37;;;;;;;4.35;2.65;;;;;;;11.67;62.89;98951.53;6259815;28;21158;-70
2024/02/24 03:19:41;;;;;;;5.47;2.97;;;;;;;11.79;62.51;98940.06;6272192;28;20056;-70
2024/02/24 03:22:42;;;;;;;4.78;2.40;;;;;;;11.72;62.90;98936.31;6267660;28;20049;-71
2024/02/24 03:25:43;;;;;;;5.45;2.72;;;;;;;11.55;63.61;98942.97;6270703;28;20386;-71
2024/02/24 03:28:43;;;;;;;3.95;2.50;;;;;;;11.63;63.75;98937.06;6252427;28;20489;-74
2024/02/24 03:31:44;;;;;;;5.00;2.67;;;;;;;11.58;63.87;98941.88;6250406;28;20049;-75
2024/02/24 03:34:45;;;;;;;4.80;2.50;;;;;;;11.60;63.61;98939.97;6271902;28;20048;-75
2024/02/24 03:37:48;;;;;;;7.43;2.80;;;;;;;11.55;63.83;98949.94;6270949;28;20059;-75
2024/02/24 03:40:52;;;;;;;4.18;2.42;;;;;;;11.52;64.36;98952.81;6272030;28;20055;-75
2024/02/24 03:43:53;;;;;;;6.47;2.90;;;;;;;11.42;65.21;98943.13;6270354;28;20409;-75
2024/02/24 03:46:54;;;;;;;4.85;2.63;;;;;;;11.41;65.54;98949.31;6264944;28;20053;-75
2024/02/24 03:49:54;;;;;;;4.68;2.80;;;;;;;11.42;65.08;98948.34;6245638;28;20049;-70
2024/02/24 03:52:55;;;;;;;4.22;2.58;;;;;;;11.43;65.34;98942.19;6246560;28;20524;-71
2024/02/24 03:55:56;;;;;;;4.45;2.88;;;;;;;11.40;65.20;98952.88;6245637;28;20045;-70
2024/02/24 03:58:57;;;;;;;7.57;2.58;;;;;;;11.37;65.29;98954.91;6245411;28;20486;-70
2024/02/24 04:01:58;;;;;;;4.57;2.22;;;;;;;11.41;65.86;98954.53;6245289;28;20501;-71
2024/02/24 04:05:00;;;;;;;5.80;2.90;;;;;;;11.41;65.86;98958.94;6245198;28;20493;-71
2024/02/24 04:08:03;;;;;;;4.20;2.78;;;;;;;11.40;65.69;98960.69;6246512;28;20513;-70
2024/02/24 04:11:04;;;;;;;5.18;3.08;;;;;;;11.42;65.85;98964.00;6245559;28;20073;-70
2024/02/24 04:14:07;;;;;;;4.20;2.35;;;;;;;11.38;65.97;98967.81;6249534;28;20053;-71
2024/02/24 04:17:11;;;;;;;4.00;2.38;;;;;;;11.37;65.59;98960.97;6270023;28;20049;-70
2024/02/24 04:20:13;;;;;;;6.88;2.88;;;;;;;11.36;66.21;98963.69;6255618;28;20046;-75
2024/02/24 04:23:16;;;;;;;5.47;2.90;;;;;;;11.46;66.08;98973.25;6245274;28;20049;-70
2024/02/24 04:26:17;;;;;;;4.03;2.60;;;;;;;11.40;66.61;98973.75;6245082;28;20055;-70
2024/02/24 04:29:17;;;;;;;5.22;2.60;;;;;;;11.42;66.69;98981.47;6245090;28;20050;-70
2024/02/24 04:32:18;;;;;;;5.60;2.55;;;;;;;11.45;66.96;98978.63;6245079;28;20054;-70
2024/02/24 04:35:19;;;;;;;4.68;2.60;;;;;;;11.42;67.05;98982.28;6246120;28;20045;-72
2024/02/24 04:38:20;;;;;;;4.85;2.72;;;;;;;11.38;66.87;98982.69;6248935;28;20540;-71
2024/02/24 04:41:21;;;;;;;7.45;2.67;;;;;;;11.38;66.92;98987.91;6251411;28;20093;-75
2024/02/24 04:44:23;;;;;;;6.95;2.67;;;;;;;11.37;67.34;98989.69;6253968;28;20045;-75
2024/02/24 04:47:28;;;;;;;4.57;2.40;;;;;;;11.37;67.08;98989.69;6276282;28;20120;-75
2024/02/24 04:50:29;;;;;;;4.65;2.55;;;;;;;11.37;66.89;98989.69;6275847;28;20076;-75
2024/02/24 04:53:30;;;;;;;6.07;2.88;;;;;;;11.49;66.83;98998.31;6275750;28;20134;-75
2024/02/24 04:56:30;;;;;;;3.88;2.45;;;;;;;11.47;66.90;98995.00;6275638;28;20057;-75
2024/02/24 04:59:31;;;;;;;4.68;2.60;;;;;;;11.48;67.10;99004.47;6275480;28;20053;-75
2024/02/24 05:02:32;;;;;;;3.92;2.20;;;;;;;11.54;67.09;99001.38;6274127;28;20155;-75
2024/02/24 05:05:33;;;;;;;5.32;2.83;;;;;;;11.47;67.61;99014.13;6274041;28;20381;-75
2024/02/24 05:08:36;;;;;;;5.72;2.67;;;;;;;11.50;66.91;99007.81;6274235;28;20406;-70
2024/02/24 05:11:38;;;;;;;5.93;3.22;;;;;;;11.43;67.57;99004.88;6274440;28;20056;-70
2024/02/24 05:14:38;;;;;;;5.55;2.97;;;;;;;11.46;67.93;99015.06;6274181;28;20131;-70
2024/02/24 05:17:39;;;;;;;4.30;2.80;;;;;;;11.46;68.85;99027.28;6273975;28;20057;-70
2024/02/24 05:20:40;;;;;;;6.05;3.28;;;;;;;11.33;68.98;99026.63;6265029;28;20055;-71
2024/02/24 05:23:41;;;;;;;4.82;2.80;;;;;;;11.33;69.43;99035.28;6250552;28;20049;-71
2024/02/24 05:26:41;;;;;;;5.00;3.10;;;;;;;11.35;70.12;99035.19;6249970;28;20386;-70
2024/02/24 05:29:46;;;;;;;7.13;3.10;;;;;;;11.39;70.58;99036.59;6249068;28;20501;-70
2024/02/24 05:32:46;;;;;;;6.95;3.33;;;;;;;11.36;70.89;99039.44;6248782;28;20516;-71
2024/02/24 05:35:50;;;;;;;4.13;2.58;;;;;;;11.27;71.28;99043.63;6250001;28;20049;-70
2024/02/24 05:38:51;;;;;;;5.40;2.90;;;;;;;11.22;71.54;99053.59;6248717;28;20061;-70
2024/02/24 05:41:53;;;;;;;7.35;3.13;;;;;;;11.22;71.94;99077.09;6250085;28;20053;-70
2024/02/24 05:44:56;;;;;;;6.22;3.72;;;;;;;11.24;71.83;99083.00;6249623;28;20413;-70
2024/02/24 05:47:57;;;;;;;5.35;3.30;;;;;;;11.20;73.17;99082.44;6249488;28;20140;-70
2024/02/24 05:50:58;;;;;;;4.97;3.00;;;;;;;11.18;73.78;99073.06;6248570;28;20489;-75
2024/02/24 05:53:58;;;;;;;5.43;3.25;;;;;;;11.25;74.11;99076.84;6249659;28;20045;-75
2024/02/24 05:57:02;;;;;;;4.88;2.90;;;;;;;11.21;73.97;99075.44;6261906;28;20053;-75
2024/02/24 06:00:04;;;;;;;6.75;2.80;;;;;;;11.25;74.34;99082.06;6262692;28;20045;-75
2024/02/24 06:03:11;;;;;;;5.55;2.97;;;;;;;11.26;74.63;99094.16;6272471;28;20089;-75
2024/02/24 06:06:12;;;;;;;6.40;2.97;;;;;;;11.32;74.48;99098.09;6249833;28;20537;-75
2024/02/24 06:09:13;;;;;;;4.47;3.05;;;;;;;11.27;74.85;99096.66;6264226;28;20044;-75
2024/02/24 06:12:14;;;;;;;6.85;2.65;;;;;;;11.29;74.89;99105.22;6273935;28;20053;-75
2024/02/24 06:15:15;;;;;;;3.65;2.25;;;;;;;11.31;75.52;99097.25;6272579;28;20077;-75
2024/02/24 06:18:15;;;;;;;6.07;2.83;;;;;;;11.21;75.70;99104.97;6273690;28;20131;-75
2024/02/24 06:21:16;;;;;;;5.88;2.65;;;;;;;11.16;76.00;99107.13;6273798;28;20055;-75
2024/02/24 06:24:17;;;;;;;4.07;2.50;;;;;;;11.34;75.65;99124.91;6273496;28;20084;-75
2024/02/24 06:27:20;;;;;;;3.58;2.55;;;;;;;11.27;75.95;99129.78;6272570;28;20049;-75
2024/02/24 06:30:23;;;;;;;3.58;2.45;;;;;;;11.34;76.44;99137.97;6273526;28;20056;-75
2024/02/24 06:33:24;;;;;;;5.43;2.80;;;;;;;11.32;75.95;99143.31;6269925;28;20047;-75
2024/02/24 06:36:25;;;;;;;8.02;3.72;;;;;;;11.32;76.24;99142.47;6248633;28;20050;-75
2024/02/24 06:39:25;;;;;;;5.25;2.80;;;;;;;11.28;75.70;99137.50;6247209;28;20053;-75
2024/02/24 06:42:26;;;;;;;3.85;2.45;;;;;;;11.31;76.15;99133.81;6247194;28;20088;-75
2024/02/24 06:45:29;;;;;;;4.85;2.95;;;;;;;11.33;76.43;99133.72;6247107;28;20133;-75
2024/02/24 06:48:30;;;;;;;4.75;2.83;;;;;;;11.42;76.62;99152.06;6248422;28;20050;-75
2024/02/24 06:51:31;;;;;;;7.07;2.50;;;;;;;11.40;76.40;99150.53;6247029;28;20053;-75
2024/02/24 06:54:32;;;;;;;4.50;2.67;;;;;;;11.49;76.18;99152.44;6247911;28;20084;-75
2024/02/24 06:57:33;;;;;;;4.97;2.50;;;;;;;11.53;76.85;99155.63;6248035;28;20049;-75
2024/02/24 07:00:38;;;;;;;6.10;2.65;;;;;;;11.52;76.72;99160.03;6247514;28;20080;-75
2024/02/24 07:03:39;;;;;;;4.85;2.25;;;;;;;11.60;76.65;99164.66;6247935;28;20045;-75
2024/02/24 07:06:41;;;;;;;4.80;2.70;;;;;;;11.51;77.46;99166.22;6247705;28;20516;-75
2024/02/24 07:09:42;;;;;;;;;;;;;;;11.58;77.02;99172.59;6247112;28;20462;-75
2024/02/24 07:12:43;;;;;;;5.00;2.95;;;;;;;11.57;76.89;99176.19;6247664;28;19921;-75
2024/02/24 07:15:44;;;;;;;6.75;2.55;;;;;;;11.72;76.74;99173.31;6246504;28;20053;-74
2024/02/24 07:18:45;;;;;;;4.40;2.30;;;;;;;11.63;77.51;99173.09;6247646;28;20115;-75
2024/02/24 07:21:45;;;;;;;5.47;2.90;;;;;;;11.55;78.04;99175.47;6246397;28;20064;-75
2024/02/24 07:24:46;;;;;;;5.15;3.40;;;;;;;11.55;78.87;99172.84;6247404;28;20049;-75
2024/02/24 07:27:47;;;;;;;4.70;2.40;;;;;;;11.52;78.61;99170.47;6246195;28;20528;-75
2024/02/24 07:30:48;;;;;;;5.72;2.58;;;;;;;11.56;79.15;99177.13;6246302;28;20053;-75
2024/02/24 07:33:49;;;;;;;4.43;2.78;;;;;;;11.70;79.74;99184.69;6256468;28;20040;-75
2024/02/24 07:36:49;;;;;;;5.13;2.80;;;;;;;11.68;80.19;99191.00;6268982;28;20489;-75
2024/02/24 07:39:53;;;;;;;6.90;3.08;;;;;;;11.77;80.16;99192.03;6269418;28;20044;-75
2024/02/24 07:42:56;;;;;;;5.97;3.15;;;;;;;11.68;80.33;99189.22;6271442;28;20045;-75
2024/02/24 07:45:57;;;;;;;5.80;3.03;;;;;;;11.77;80.21;99192.88;6270488;28;20056;-70
2024/02/24 07:49:00;;;;;;;5.15;3.35;;;;;;;11.74;80.26;99193.13;6270712;28;20045;-70
2024/02/24 07:52:01;;;;;;;7.28;3.53;;;;;;;11.67;80.47;99199.78;6258514;28;20053;-75
2024/02/24 07:55:02;;;;;;;6.85;3.60;;;;;;;11.79;81.44;99206.66;6246921;28;20052;-75
2024/02/24 07:58:03;;;;;;;6.68;3.03;;;;;;;11.82;81.41;99206.41;6245612;28;20421;-75
2024/02/24 08:01:04;;;;;;;6.07;2.92;;;;;;;11.91;80.82;99202.25;6253431;28;20087;-75
2024/02/24 08:04:04;;;;;;;7.32;3.28;;;;;;;12.01;81.74;99212.81;6255356;28;20598;-75
2024/02/24 08:07:05;;;;;;;6.35;3.25;;;;;;;12.09;82.94;99205.19;6245407;28;20049;-75
2024/02/24 08:10:06;;;;;;;7.95;2.88;;;;;;;12.08;82.99;99206.94;6246586;28;20049;-75
2024/02/24 08:13:08;;;;;;;5.55;2.70;;;;;;;11.98;81.90;99213.06;6244480;28;20418;-75
2024/02/24 08:16:09;;;;;;;6.00;3.17;;;;;;;12.15;81.42;99212.53;6257653;28;20049;-71
2024/02/24 08:19:10;;;;;;;12.77;4.38;;;;;;;12.23;81.90;99231.06;6266604;28;20061;-71
2024/02/24 08:22:11;;;;;;;7.68;3.13;;;;;;;12.33;81.55;99243.38;6254155;28;20108;-71
2024/02/24 08:25:12;;;;;;;7.13;3.42;;;;;;;12.57;80.90;99235.31;6245167;28;20049;-71
2024/02/24 08:28:15;;;;;;;6.20;3.20;;;;;;;12.64;81.85;99239.06;6257402;28;20080;-71
2024/02/24 08:31:16;;;;;;;6.05;3.28;;;;;;;12.67;81.21;99239.66;6255845;28;20094;-71
2024/02/24 08:34:17;;;;;;;12.07;4.45;;;;;;;12.70;81.27;99244.66;6254338;28;20067;-71
2024/02/24 08:37:18;;;;;;;10.20;4.50;;;;;;;12.79;80.65;99253.53;6265949;28;20515;-70
2024/02/24 08:40:19;;;;;;;4.03;2.70;;;;;;;12.85;80.59;99254.81;6267901;28;20085;-70
2024/02/24 08:43:19;;;;;;;5.22;3.08;;;;;;;13.03;80.12;99249.81;6255725;28;20037;-70
2024/02/24 08:46:20;;;;;;;5.50;2.70;;;;;;;13.01;79.58;99247.34;6258394;28;20390;-70
2024/02/24 08:49:23;;;;;;;9.10;3.78;;;;;;;13.13;79.58;99247.25;6270494;28;20052;-70
2024/02/24 08:52:24;;;;;;;5.20;2.88;;;;;;;13.15;79.39;99261.03;6264111;28;20041;-70
2024/02/24 08:55:25;;;;;;;7.63;3.38;;;;;;;13.05;79.99;99261.84;6258468;28;20429;-70
2024/02/24 08:58:26;;;;;;;11.80;3.28;;;;;;;13.08;80.92;99272.03;6269217;28;20048;-70
2024/02/24 09:01:27;;;;;;;9.65;3.33;;;;;;;13.15;80.63;99274.97;6269381;28;20076;-71
2024/02/24 09:04:28;;;;;;;7.07;3.35;;;;;;;13.07;80.33;99278.25;6270712;28;20049;-71
2024/02/24 09:07:31;;;;;;;6.30;2.95;;;;;;;13.21;80.42;99273.63;6269376;28;20056;-70
2024/02/24 09:10:31;;;;;;;4.97;2.63;;;;;;;13.27;80.95;99280.97;6270535;28;20422;-71
2024/02/24 09:13:32;;;;;;;4.32;2.72;;;;;;;13.20;80.65;99285.03;6263363;28;20045;-71
2024/02/24 09:16:33;;;;;;;5.03;2.38;;;;;;;13.19;80.12;99278.16;6257303;28;20055;-72
2024/02/24 09:19:34;;;;;;;4.43;2.85;;;;;;;13.28;80.62;99286.09;6262795;28;20073;-71
2024/02/24 09:22:35;;;;;;;4.85;2.42;;;;;;;13.31;79.44;99290.25;6245881;28;20081;-71
2024/02/24 09:25:39;;;;;;;6.30;2.47;;;;;;;13.41;79.65;99298.19;6268811;28;20053;-71
2024/02/24 09:28:39;;;;;;;4.68;2.42;;;;;;;13.36;78.90;99288.06;6268819;28;20049;-71
2024/02/24 09:31:41;;;;;;;4.30;2.53;;;;;;;13.41;78.99;99292.94;6267277;28;20055;-70
2024/02/24 09:34:41;;;;;;;10.47;3.03;;;;;;;13.49;78.62;99293.13;6273678;28;20110;-71
2024/02/24 09:37:42;;;;;;;7.18;2.92;;;;;;;13.53;79.00;99299.75;6274761;28;20788;-71
2024/02/24 09:40:43;;;;;;;8.57;2.75;;;;;;;13.42;79.73;99302.44;6273430;28;20084;-71
2024/02/24 09:43:44;;;;;;;12.35;2.80;;;;;;;13.44;79.74;99300.53;6273546;28;20505;-71
2024/02/24 09:46:45;;;;;;;7.15;3.05;;;;;;;13.48;79.25;99312.41;6273207;28;20569;-71
2024/02/24 09:49:49;;;;;;;8.20;2.97;;;;;;;13.52;79.32;99305.13;6273168;28;20469;-70
2024/02/24 09:52:49;;;;;;;3.92;2.20;;;;;;;13.57;79.11;99308.16;6273026;28;20432;-71
2024/02/24 09:55:53;;;;;;;6.20;2.63;;;;;;;13.73;79.33;99312.94;6273047;28;20045;-71
2024/02/24 09:58:54;;;;;;;5.60;2.10;;;;;;;13.83;79.35;99313.81;6273583;28;20390;-71
2024/02/24 10:01:55;;;;;;;3.95;2.28;;;;;;;13.77;79.23;99311.72;6272575;28;20394;-70
2024/02/24 10:04:57;;;;;;;7.35;2.80;;;;;;;13.72;79.25;99314.72;6273305;28;20084;-71
2024/02/24 10:07:58;;;;;;;5.88;2.80;;;;;;;13.69;80.00;99313.22;6247813;28;20060;-70
2024/02/24 10:11:00;;;;;;;7.15;2.85;;;;;;;13.84;79.69;99311.06;6260546;28;20056;-70
2024/02/24 10:14:02;;;;;;;3.45;2.22;;;;;;;13.83;79.13;99317.25;6248004;28;20555;-70
2024/02/24 10:17:02;;;;;;;5.57;3.30;;;;;;;13.87;78.71;99307.34;6247876;28;20045;-70
2024/02/24 10:20:06;;;;;;;6.28;2.97;;;;;;;13.81;78.98;99323.59;6248778;28;20060;-70
2024/02/24 10:23:07;;;;;;;5.40;2.55;;;;;;;13.87;79.16;99334.38;6258022;28;20089;-70
2024/02/24 10:26:08;;;;;;;5.32;2.67;;;;;;;14.14;78.74;99326.88;6272120;28;20057;-70
2024/02/24 10:29:09;;;;;;;5.10;2.13;;;;;;;14.36;78.31;99333.72;6272194;28;20045;-70
2024/02/24 10:32:14;;;;;;;3.40;2.00;;;;;;;14.41;78.90;99332.34;6273003;28;20084;-70
2024/02/24 10:35:14;;;;;;;9.13;2.40;;;;;;;14.49;77.42;99342.97;6271486;28;20136;-70
2024/02/24 10:38:16;;;;;;;9.68;2.40;;;;;;;14.48;77.45;99351.81;6272939;28;20303;-70
2024/02/24 10:41:21;;;;;;;5.43;2.67;;;;;;;14.45;77.44;99343.38;6272551;28;20095;-70
2024/02/24 10:44:22;;;;;;;4.00;2.30;;;;;;;14.44;76.76;99346.97;6272041;28;20092;-70
2024/02/24 10:47:24;;;;;;;4.23;2.60;;;;;;;14.48;75.83;99348.38;6266416;28;20137;-70
2024/02/24 10:50:24;;;;;;;10.37;3.10;;;;;;;14.51;76.43;99354.16;6268334;28;20053;-70
2024/02/24 10:53:27;;;;;;;6.65;2.55;;;;;;;14.57;76.03;99355.44;6261396;28;20071;-69
2024/02/24 10:56:29;;;;;;;9.77;3.45;;;;;;;14.59;75.12;99361.38;6265061;28;20072;-69
2024/02/24 10:59:31;;;;;;;12.83;4.87;;;;;;;14.52;76.22;99350.59;6252915;28;20136;-70
2024/02/24 11:02:32;;;;;;;9.35;4.28;;;;;;;14.48;75.18;99354.44;6254467;28;20061;-70
2024/02/24 11:05:35;;;;;;;7.68;2.90;;;;;;;14.57;76.06;99357.25;6246803;28;20077;-70
2024/02/24 11:08:37;;;;;;;5.50;2.72;;;;;;;14.61;75.51;99366.50;6272366;28;20578;-70
2024/02/24 11:11:38;;;;;;;3.33;2.17;;;;;;;14.53;76.00;99367.16;6272465;28;20052;-70
2024/02/24 11:14:41;;;;;;;6.70;2.80;;;;;;;14.53;76.68;99372.41;6271135;28;20493;-71
2024/02/24 11:17:52;;;;;;;10.02;2.35;;;;;;;14.38;76.69;99374.59;6269509;28;20103;-70
2024/02/24 11:20:55;;;;;;;4.10;2.10;;;;;;;14.34;77.76;99375.00;6270764;28;20044;-71
2024/02/24 11:23:56;;;;;;;4.75;2.17;;;;;;;14.29;77.46;99373.59;6254761;28;20174;-70
2024/02/24 11:26:57;;;;;;;5.40;2.10;;;;;;;14.32;77.41;99372.50;6257816;28;20045;-70
2024/02/24 11:29:58;;;;;;;3.30;2.08;;;;;;;14.42;77.29;99373.34;6261115;28;20045;-70
2024/02/24 11:33:28;;;;;;;3.53;2.03;;;;;;;14.37;77.18;99370.31;6260791;28;20143;-70
2024/02/24 11:36:38;;;;;;;3.47;2.08;;;;;;;14.31;77.17;99374.31;6262919;28;20062;-70
2024/02/24 11:39:40;;;;;;;3.83;2.40;;;;;;;14.42;76.93;99365.47;6247025;28;20402;-70
2024/02/24 11:42:41;;;;;;;;;;;;;;;14.40;76.25;99369.22;6247470;28;20410;-70
2024/02/24 11:45:46;;;;;;;4.10;2.25;;;;;;;14.55;76.20;99377.53;6265049;28;19979;-70
2024/02/24 11:48:51;;;;;;;4.18;2.15;;;;;;;14.57;75.34;99376.44;6267923;28;20056;-71
2024/02/24 11:51:52;;;;;;;6.95;2.25;;;;;;;14.67;75.96;99382.53;6271494;28;20156;-70
2024/02/24 11:54:53;;;;;;;3.17;2.10;;;;;;;14.71;75.27;99388.38;6267472;28;20489;-71
2024/02/24 11:57:54;;;;;;;6.47;2.55;;;;;;;14.60;75.08;99383.22;6270303;28;20045;-71
2024/02/24 12:00:55;;;;;;;5.40;2.30;;;;;;;14.71;76.34;99385.75;6264261;28;20064;-70
2024/02/24 12:03:57;;;;;;;7.35;2.88;;;;;;;14.53;76.25;99385.53;6248244;28;20278;-74
2024/02/24 12:07:01;;;;;;;;;;;;;;;14.65;77.74;99387.09;6252959;28;20052;-74
2024/02/24 12:10:04;;;;;;;5.75;2.33;;;;;;;14.63;77.77;99393.47;6246447;28;19924;-74
2024/02/24 12:13:06;;;;;;;6.22;2.70;;;;;;;14.52;78.14;99386.50;6253284;28;20048;-74
2024/02/24 12:16:07;;;;;;;6.13;2.42;;;;;;;14.47;79.19;99401.81;6248732;28;20107;-74
2024/02/24 12:19:09;;;;;;;5.88;3.00;;;;;;;14.46;79.89;99403.63;6266564;28;20045;-74
2024/02/24 12:22:10;;;;;;;7.93;3.08;;;;;;;14.54;81.06;99395.06;6270130;28;20044;-74
2024/02/24 12:25:13;;;;;;;7.35;2.92;;;;;;;14.60;81.94;99399.81;6269881;28;20052;-74
2024/02/24 12:28:15;;;;;;;8.98;2.90;;;;;;;14.43;82.16;99406.53;6263992;28;20292;-74
2024/02/24 12:31:19;;;;;;;7.63;3.72;;;;;;;14.51;83.03;99411.91;6270365;28;20044;-74
2024/02/24 12:34:24;;;;;;;6.18;3.35;;;;;;;14.45;83.62;99411.63;6269258;28;20501;-75
2024/02/24 12:37:24;;;;;;;13.82;2.65;;;;;;;14.31;83.65;99416.28;6268891;28;20539;-74
2024/02/24 12:40:27;;;;;;;5.43;2.70;;;;;;;14.26;83.42;99413.22;6263876;28;20080;-74
2024/02/24 12:43:27;;;;;;;;;;;;;;;14.37;83.73;99419.31;6270030;28;20071;-74
2024/02/24 12:46:28;;;;;;;4.75;2.65;;;;;;;14.29;84.30;99414.78;6269503;28;19947;-74
2024/02/24 12:49:29;;;;;;;7.03;2.22;;;;;;;14.27;82.73;99416.69;6268810;28;20114;-70
2024/02/24 12:52:29;;;;;;;9.98;3.20;;;;;;;14.19;83.63;99419.16;6270870;28;20097;-69
2024/02/24 12:55:30;;;;;;;6.38;2.75;;;;;;;14.20;84.67;99426.03;6269428;28;20132;-74
2024/02/24 12:58:31;;;;;;;8.52;2.90;;;;;;;14.19;85.48;99430.47;6270828;28;20481;-74
2024/02/24 13:01:32;;;;;;;4.93;2.75;;;;;;;14.20;87.42;99432.13;6275554;28;20057;-74
2024/02/24 13:04:35;;;;;;;8.88;3.05;;;;;;;14.13;89.84;99436.25;6274308;28;20056;-74
2024/02/24 13:07:38;;;;;;;6.97;2.95;;;;;;;14.17;91.34;99442.06;6274426;28;20053;-74
2024/02/24 13:10:38;;;;;;;4.65;2.22;;;;;;;14.14;92.66;99453.63;6275313;28;20057;-74
2024/02/24 13:13:39;;;;;;;4.85;2.67;;;;;;;14.11;95.02;99459.97;6273999;28;20096;-74
2024/02/24 13:16:43;;;;;;;5.72;2.70;;;;;;;14.05;96.71;99457.88;6275261;28;20520;-74
2024/02/24 13:19:45;;;;;;;6.82;3.15;;;;;;;14.17;98.04;99463.88;6264192;28;20049;-74
2024/02/24 13:22:46;;;;;;;6.60;3.17;;;;;;;14.04;100.00;99465.88;6265266;28;20519;-74
2024/02/24 13:25:46;;;;;;;6.78;2.83;;;;;;;14.06;100.00;99467.41;6272145;28;20045;-74
2024/02/24 13:28:47;;;;;;;7.32;3.22;;;;;;;14.06;100.00;99470.03;6271933;28;20097;-75
2024/02/24 13:31:48;;;;;;;9.38;3.70;;;;;;;13.86;100.00;99478.75;6268221;28;20056;-74
2024/02/24 13:34:49;;;;;;;9.40;3.28;;;;;;;13.78;100.00;99478.56;6273727;28;20049;-74
2024/02/24 13:37:50;;;;;;;8.20;3.00;;;;;;;13.69;100.00;99485.38;6273567;28;20049;-74
2024/02/24 13:40:51;;;;;;;4.15;2.90;;;;;;;13.67;100.00;99489.91;6273599;28;20052;-74
2024/02/24 13:43:52;;;;;;;5.63;3.15;;;;;;;13.58;100.00;99488.91;6274635;28;20045;-74
2024/02/24 13:46:52;;;;;;;8.55;4.22;;;;;;;13.47;100.00;99494.22;6273282;28;20493;-74
2024/02/24 13:49:53;;;;;;;7.28;3.17;;;;;;;13.59;100.00;99492.34;6273297;28;20060;-74
2024/02/24 13:52:54;;;;;;;5.28;2.70;;;;;;;13.38;100.00;99497.56;6273128;28;20049;-74
2024/02/24 13:55:55;;;;;;;6.57;3.03;;;;;;;13.39;100.00;99505.31;6273069;28;20143;-74
2024/02/24 13:59:00;;;;;;;6.07;3.45;;;;;;;13.36;100.00;99521.25;6272420;28;20801;-74
2024/02/24 14:02:03;;;;;;;7.28;3.03;;;;;;;13.52;100.00;99517.41;6262737;28;20493;-74
2024/02/24 14:05:04;;;;;;;7.50;3.85;;;;;;;13.52;100.00;99512.16;6272761;28;20473;-74
2024/02/24 14:08:11;;;;;;;13.50;6.13;;;;;;;13.39;100.00;99514.97;6267004;28;20045;-74
2024/02/24 14:11:11;;;;;;;11.15;4.75;;;;;;;13.35;100.00;99513.56;6269815;28;20048;-74
2024/02/24 14:14:14;;;;;;;7.68;3.80;;;;;;;13.42;100.00;99522.56;6258283;28;20557;-74